Time;durP1;ratioP1;P1;durP2;ratioP2;P2;SDS_P1;SDS_P2;PMS_P1;PMS_P2;Temp;Humidity;BMP_temperature;BMP_pressure;BME280_temperature;BME280_humidity;BME280_pressure;Samples;Min_cycle;Max_cycle;Signal;HPM_P1;HPM_P2
2021/12/08 00:01:14;;;;;;;15.52;1.60;;;5.10;99.90;;;;;;5020633;28;20685;-76
2021/12/08 00:03:42;;;;;;;10.88;1.67;;;5.10;99.90;;;;;;4984790;28;20053;-74
2021/12/08 00:06:10;;;;;;;11.23;1.45;;;5.10;99.90;;;;;;4978403;28;20392;-77
2021/12/08 00:08:38;;;;;;;14.38;2.08;;;5.10;99.90;;;;;;5013584;28;20042;-75
2021/12/08 00:13:53;;;;;;;10.43;1.33;;;5.10;99.90;;;;;;4978984;28;20066;-75
2021/12/08 00:16:20;;;;;;;9.15;1.45;;;5.10;99.90;;;;;;4981331;28;20054;-77
2021/12/08 00:18:49;;;;;;;16.55;1.70;;;5.10;99.90;;;;;;4988507;28;20065;-76
2021/12/08 00:21:17;;;;;;;;;;;5.20;99.90;;;;;;4987745;28;20043;-77
2021/12/08 00:23:45;;;;;;;6.97;1.13;;;5.20;99.90;;;;;;4989482;28;19925;-76
2021/12/08 00:26:13;;;;;;;10.70;1.60;;;5.30;99.90;;;;;;4988453;28;20046;-74
2021/12/08 00:28:41;;;;;;;14.80;1.95;;;5.30;99.90;;;;;;4988406;28;20054;-75
2021/12/08 00:31:09;;;;;;;14.48;1.80;;;5.30;99.90;;;;;;4970555;28;20050;-77
2021/12/08 00:33:36;;;;;;;9.60;1.30;;;5.30;99.90;;;;;;4988038;28;20047;-75
2021/12/08 00:36:12;;;;;;;10.68;1.60;;;5.30;99.90;;;;;;4992597;28;20046;-74
2021/12/08 00:38:41;;;;;;;8.73;1.33;;;5.30;99.90;;;;;;4988054;28;20062;-77
2021/12/08 00:41:09;;;;;;;14.98;1.80;;;5.30;99.90;;;;;;4988084;28;20403;-73
2021/12/08 00:43:37;;;;;;;16.50;1.83;;;5.20;99.90;;;;;;4985397;28;20050;-74
2021/12/08 00:46:05;;;;;;;13.80;2.00;;;5.20;99.90;;;;;;4980386;28;20071;-75
2021/12/08 00:48:33;;;;;;;15.95;1.95;;;5.20;99.90;;;;;;4977612;28;20069;-76
2021/12/08 00:51:01;;;;;;;12.43;1.88;;;5.30;99.90;;;;;;4985317;28;20156;-74
2021/12/08 00:53:29;;;;;;;18.40;2.08;;;5.20;99.90;;;;;;4985411;28;20062;-73
2021/12/08 00:55:57;;;;;;;16.88;2.00;;;5.30;99.90;;;;;;4972147;28;20055;-77
2021/12/08 00:58:25;;;;;;;17.55;2.03;;;5.30;99.90;;;;;;4999668;28;20046;-74
2021/12/08 01:00:53;;;;;;;17.88;2.13;;;5.30;99.90;;;;;;5003360;28;20054;-76
2021/12/08 01:03:21;;;;;;;;;;;5.30;99.90;;;;;;5003223;28;20058;-76
2021/12/08 01:05:52;;;;;;;14.07;1.90;;;5.20;99.90;;;;;;4997410;28;19929;-75
2021/12/08 01:08:23;;;;;;;20.75;2.25;;;5.20;99.90;;;;;;4980962;28;20054;-76
2021/12/08 01:10:53;;;;;;;19.48;2.55;;;5.10;99.90;;;;;;4987325;28;20050;-75
2021/12/08 01:13:22;;;;;;;14.93;1.83;;;5.10;99.90;;;;;;5001171;28;20057;-75
2021/12/08 01:15:54;;;;;;;15.73;2.33;;;5.10;99.90;;;;;;4986957;28;20042;-74
2021/12/08 01:18:22;;;;;;;20.48;2.17;;;5.10;99.90;;;;;;4987913;28;20399;-75
2021/12/08 01:20:52;;;;;;;20.50;2.10;;;5.10;99.90;;;;;;4986719;28;20049;-74
2021/12/08 01:23:20;;;;;;;21.20;2.28;;;5.10;99.90;;;;;;4987286;28;20046;-75
2021/12/08 01:25:49;;;;;;;19.67;1.85;;;5.10;99.90;;;;;;5018222;28;20053;-76
2021/12/08 01:28:21;;;;;;;23.67;2.45;;;5.10;99.90;;;;;;5002313;28;20050;-74
2021/12/08 01:30:52;;;;;;;17.35;2.17;;;5.00;99.90;;;;;;4986020;28;20407;-75
2021/12/08 01:33:21;;;;;;;15.88;1.95;;;5.00;99.90;;;;;;5002608;28;20058;-75
2021/12/08 01:35:48;;;;;;;15.63;2.10;;;5.00;99.90;;;;;;4984704;28;20066;-75
2021/12/08 01:38:17;;;;;;;18.58;1.98;;;5.00;99.90;;;;;;4987115;28;20065;-76
2021/12/08 01:40:45;;;;;;;19.33;2.17;;;5.10;99.90;;;;;;4987293;28;20046;-74
2021/12/08 01:43:24;;;;;;;;;;;5.10;99.90;;;;;;4983649;28;20051;-76
2021/12/08 01:46:00;;;;;;;15.68;2.15;;;5.10;99.90;;;;;;5012128;28;19922;-78
2021/12/08 01:48:34;;;;;;;25.73;2.90;;;5.10;99.90;;;;;;5002092;28;20407;-77
2021/12/08 01:51:10;;;;;;;26.42;2.60;;;5.10;99.90;;;;;;4985804;28;20156;-75
2021/12/08 01:53:40;;;;;;;24.08;2.50;;;5.20;99.90;;;;;;5018774;28;20383;-76
2021/12/08 01:56:09;;;;;;;25.13;2.90;;;5.20;99.90;;;;;;4987343;28;20354;-76
2021/12/08 01:58:38;;;;;;;18.83;2.72;;;5.20;99.90;;;;;;5001997;28;20054;-74
2021/12/08 02:01:09;;;;;;;21.15;2.65;;;5.20;99.90;;;;;;4986980;28;20475;-74
2021/12/08 02:03:39;;;;;;;20.85;2.60;;;5.20;99.90;;;;;;4985591;28;20046;-73
2021/12/08 02:06:08;;;;;;;16.77;2.70;;;5.20;99.90;;;;;;4978935;28;20381;-73
2021/12/08 02:08:37;;;;;;;20.05;2.63;;;5.20;99.90;;;;;;5011710;28;20062;-73
2021/12/08 02:11:06;;;;;;;21.42;2.60;;;5.20;99.90;;;;;;5002112;28;20066;-74
2021/12/08 02:13:38;;;;;;;25.50;3.10;;;5.20;99.90;;;;;;5001870;28;20061;-74
2021/12/08 02:16:14;;;;;;;24.67;2.40;;;5.30;99.90;;;;;;4985465;28;20062;-74
2021/12/08 02:18:48;;;;;;;23.17;2.33;;;5.30;99.90;;;;;;4994294;28;20055;-74
2021/12/08 02:21:35;;;;;;;18.45;2.28;;;5.30;99.90;;;;;;4981256;28;20575;-75
2021/12/08 02:24:14;;;;;;;19.25;2.42;;;5.40;99.90;;;;;;4978609;28;20058;-73
2021/12/08 02:26:44;;;;;;;12.55;1.73;;;5.40;99.90;;;;;;4986461;28;20042;-75
2021/12/08 02:29:20;;;;;;;17.08;2.40;;;5.40;99.90;;;;;;4986600;28;20054;-76
2021/12/08 02:31:56;;;;;;;18.85;2.25;;;5.50;99.90;;;;;;4986911;28;20046;-74
2021/12/08 02:48:15;;;;;;;14.90;2.20;;;5.70;99.90;;;;;;4986729;28;20046;-76
2021/12/08 02:50:43;;;;;;;19.38;2.15;;;5.70;99.90;;;;;;5001808;28;20479;-74
2021/12/08 02:53:13;;;;;;;24.02;2.28;;;5.60;99.90;;;;;;4986945;28;20046;-75
2021/12/08 02:55:42;;;;;;;16.25;2.42;;;5.60;99.90;;;;;;4990532;28;20070;-75
2021/12/08 02:58:12;;;;;;;13.82;1.83;;;5.50;99.90;;;;;;4990771;28;20062;-76
2021/12/08 03:00:51;;;;;;;19.58;2.25;;;5.50;99.90;;;;;;4991010;28;20046;-73
2021/12/08 03:03:19;;;;;;;15.82;1.70;;;5.50;99.90;;;;;;4989390;28;20054;-75
2021/12/08 03:05:47;;;;;;;20.02;2.17;;;5.50;99.90;;;;;;4991025;28;20038;-76
2021/12/08 03:08:14;;;;;;;23.92;2.35;;;5.50;99.90;;;;;;4990677;28;20053;-72
2021/12/08 03:10:50;;;;;;;17.58;2.38;;;5.50;99.90;;;;;;4990784;28;20039;-76
2021/12/08 03:13:27;;;;;;;18.95;2.45;;;5.50;99.90;;;;;;4989337;28;20057;-73
2021/12/08 03:15:55;;;;;;;18.10;2.17;;;5.50;99.90;;;;;;4990791;28;20053;-76
2021/12/08 03:18:31;;;;;;;20.15;2.55;;;5.50;99.90;;;;;;5005226;28;20046;-74
2021/12/08 03:21:01;;;;;;;23.73;2.53;;;5.50;99.90;;;;;;4990552;28;20050;-73
2021/12/08 03:23:35;;;;;;;16.52;2.00;;;5.50;99.90;;;;;;5005347;28;20038;-73
2021/12/08 03:26:06;;;;;;;19.52;2.58;;;5.40;99.90;;;;;;4989386;28;20050;-74
2021/12/08 03:28:40;;;;;;;19.50;2.15;;;5.40;99.90;;;;;;5021981;28;20057;-75
2021/12/08 03:31:14;;;;;;;19.63;2.10;;;5.40;99.90;;;;;;4990974;28;20050;-75
2021/12/08 03:33:43;;;;;;;20.20;2.15;;;5.40;99.90;;;;;;4990512;28;20065;-75
2021/12/08 03:36:11;;;;;;;21.73;2.63;;;5.40;99.90;;;;;;4990568;28;20046;-75
2021/12/08 03:38:39;;;;;;;22.88;2.30;;;5.40;99.90;;;;;;4990154;28;20056;-75
2021/12/08 03:41:08;;;;;;;;;;;5.40;99.90;;;;;;4990723;28;20053;-74
2021/12/08 03:43:35;;;;;;;15.07;2.10;;;5.40;99.90;;;;;;4990092;28;19941;-76
2021/12/08 03:46:04;;;;;;;19.70;2.42;;;5.40;99.90;;;;;;5005681;28;20047;-75
2021/12/08 03:48:45;;;;;;;20.67;2.58;;;5.40;99.90;;;;;;4989451;28;20054;-75
2021/12/08 03:51:15;;;;;;;20.17;2.40;;;5.40;99.90;;;;;;4988345;28;20065;-75
2021/12/08 03:53:43;;;;;;;21.73;1.90;;;5.40;99.90;;;;;;4990109;28;20046;-75
2021/12/08 03:56:11;;;;;;;14.77;1.90;;;5.40;99.90;;;;;;4990272;28;20583;-75
2021/12/08 03:58:39;;;;;;;27.38;2.90;;;5.40;99.90;;;;;;4989699;28;20050;-76
2021/12/08 04:01:07;;;;;;;22.30;2.65;;;5.50;99.90;;;;;;4989590;28;20362;-73
2021/12/08 04:03:35;;;;;;;19.70;2.30;;;5.40;99.90;;;;;;5004718;28;20049;-77
2021/12/08 04:06:15;;;;;;;22.35;2.30;;;5.50;99.90;;;;;;4987747;28;20046;-74
2021/12/08 04:08:52;;;;;;;23.75;3.17;;;5.40;99.90;;;;;;4989492;28;20494;-75
2021/12/08 04:11:20;;;;;;;21.65;2.22;;;5.40;99.90;;;;;;4988700;28;20054;-73
2021/12/08 04:13:54;;;;;;;20.80;2.72;;;5.50;99.90;;;;;;4989440;28;20054;-73
2021/12/08 04:16:26;;;;;;;19.17;2.97;;;5.50;99.90;;;;;;5004671;28;20054;-74
2021/12/08 04:18:57;;;;;;;20.45;2.40;;;5.60;99.90;;;;;;4988068;28;20057;-73
2021/12/08 04:21:27;;;;;;;29.77;3.10;;;5.60;99.90;;;;;;4989656;28;20054;-73
2021/12/08 04:23:55;;;;;;;27.55;2.35;;;5.60;99.90;;;;;;4988144;28;20050;-73
2021/12/08 04:26:36;;;;;;;17.70;2.42;;;5.60;99.90;;;;;;4989269;28;20050;-73
2021/12/08 04:29:08;;;;;;;26.40;3.00;;;5.60;99.90;;;;;;4972172;28;20513;-74
2021/12/08 04:31:39;;;;;;;17.92;2.70;;;5.70;99.90;;;;;;4989535;28;20055;-74
2021/12/08 04:34:13;;;;;;;24.58;3.45;;;5.80;99.90;;;;;;4987815;28;20958;-74
2021/12/08 04:36:45;;;;;;;16.05;2.58;;;5.70;99.90;;;;;;4987615;28;20062;-73
2021/12/08 04:39:26;;;;;;;19.45;2.65;;;5.70;99.90;;;;;;4988961;28;20061;-73
2021/12/08 04:42:00;;;;;;;20.77;3.17;;;5.70;99.90;;;;;;5020839;28;20051;-73
2021/12/08 04:44:36;;;;;;;27.92;3.17;;;5.70;99.90;;;;;;4988784;28;20057;-74
2021/12/08 05:01:46;;;;;;;22.95;2.92;;;5.80;99.90;;;;;;4988642;28;20053;-75
2021/12/08 05:07:30;;;;;;;17.95;2.60;;;5.80;99.90;;;;;;4987486;28;20062;-73
2021/12/08 05:09:59;;;;;;;;;;;5.80;99.90;;;;;;4987620;28;20057;-75
2021/12/08 05:12:33;;;;;;;22.00;2.78;;;5.70;99.90;;;;;;4988481;28;19937;-73
2021/12/08 05:15:10;;;;;;;19.05;2.40;;;5.80;99.90;;;;;;5003013;28;20054;-74
2021/12/08 05:17:55;;;;;;;15.48;2.53;;;5.70;99.90;;;;;;4987627;28;20403;-74
2021/12/08 05:20:36;;;;;;;22.83;3.10;;;5.70;99.90;;;;;;4988125;28;20502;-74
2021/12/08 05:23:13;;;;;;;20.95;2.80;;;5.70;99.90;;;;;;5003445;28;20058;-72
2021/12/08 05:25:42;;;;;;;16.20;2.72;;;5.70;99.90;;;;;;5019660;28;20387;-73
2021/12/08 05:28:14;;;;;;;18.13;2.20;;;5.60;99.90;;;;;;4987149;28;20049;-74
2021/12/08 05:31:09;;;;;;;18.67;2.50;;;5.60;99.90;;;;;;4988841;28;20054;-73
2021/12/08 05:33:39;;;;;;;14.45;2.17;;;5.60;99.90;;;;;;4988376;28;20057;-73
2021/12/08 05:36:09;;;;;;;17.63;2.40;;;5.60;99.90;;;;;;4988152;28;20054;-76
2021/12/08 05:38:38;;;;;;;17.63;2.65;;;5.50;99.90;;;;;;4985984;28;20070;-75
2021/12/08 05:41:11;;;;;;;22.27;2.65;;;5.60;99.90;;;;;;4988549;28;20050;-74
2021/12/08 05:43:40;;;;;;;17.45;2.63;;;5.60;99.90;;;;;;4987916;28;20054;-73
2021/12/08 05:46:09;;;;;;;24.77;2.85;;;5.50;99.90;;;;;;4985759;28;20058;-75
2021/12/08 05:48:38;;;;;;;17.08;2.35;;;5.60;99.90;;;;;;4987124;28;20042;-74
2021/12/08 05:51:13;;;;;;;19.00;2.60;;;5.50;99.90;;;;;;4986277;28;20851;-74
2021/12/08 05:53:44;;;;;;;21.30;2.70;;;5.50;99.90;;;;;;4987592;28;20045;-76
2021/12/08 05:56:13;;;;;;;20.45;2.55;;;5.50;99.90;;;;;;4980723;28;20061;-76
2021/12/08 05:58:42;;;;;;;15.25;2.35;;;5.50;99.90;;;;;;4983790;28;20050;-76
2021/12/08 06:01:16;;;;;;;20.25;2.20;;;5.40;99.90;;;;;;4983707;28;20073;-73
2021/12/08 06:03:47;;;;;;;19.58;2.55;;;5.40;99.90;;;;;;4986476;28;20047;-74
2021/12/08 06:06:17;;;;;;;25.70;2.65;;;5.40;99.90;;;;;;4987046;28;20506;-77
2021/12/08 06:08:45;;;;;;;21.90;2.45;;;5.40;99.90;;;;;;5001665;28;20065;-74
2021/12/08 06:11:13;;;;;;;21.92;2.65;;;5.40;99.90;;;;;;5018283;28;20050;-74
2021/12/08 06:13:43;;;;;;;20.27;2.35;;;5.40;99.90;;;;;;4986786;28;20058;-74
2021/12/08 06:16:13;;;;;;;21.60;2.38;;;5.40;99.90;;;;;;4969500;28;20057;-72
2021/12/08 06:18:42;;;;;;;14.18;2.28;;;5.30;99.90;;;;;;4987183;28;20065;-73
2021/12/08 06:21:15;;;;;;;20.42;2.55;;;5.30;99.90;;;;;;5001694;28;20050;-74
2021/12/08 06:23:44;;;;;;;16.02;2.20;;;5.20;99.90;;;;;;4987139;28;20046;-74
2021/12/08 06:26:17;;;;;;;18.75;2.80;;;5.20;99.90;;;;;;4986987;28;20054;-74
2021/12/08 06:28:45;;;;;;;18.90;2.47;;;5.20;99.90;;;;;;4986659;28;20072;-75
2021/12/08 06:31:15;;;;;;;14.27;2.30;;;5.10;99.90;;;;;;5018708;28;20057;-74
2021/12/08 06:33:43;;;;;;;18.80;2.50;;;5.10;99.90;;;;;;4987302;28;20076;-76
2021/12/08 06:36:15;;;;;;;17.63;2.10;;;5.10;99.90;;;;;;4986672;28;20053;-76
2021/12/08 06:38:44;;;;;;;18.98;2.50;;;5.00;99.90;;;;;;4985523;28;20491;-75
2021/12/08 06:41:18;;;;;;;20.13;2.55;;;5.00;99.90;;;;;;4987068;28;20054;-75
2021/12/08 06:43:53;;;;;;;17.20;2.47;;;5.00;99.90;;;;;;4986937;28;20539;-75
2021/12/08 06:46:21;;;;;;;15.43;2.28;;;5.10;99.90;;;;;;4985128;28;20218;-76
2021/12/08 06:48:53;;;;;;;19.23;2.45;;;5.00;99.90;;;;;;4986711;28;20406;-77
2021/12/08 06:51:32;;;;;;;30.27;3.08;;;5.00;99.90;;;;;;4986984;28;20495;-76
2021/12/08 06:54:10;;;;;;;20.60;2.85;;;5.10;99.90;;;;;;4985953;28;20050;-77
2021/12/08 06:56:48;;;;;;;20.08;2.80;;;5.10;99.90;;;;;;4983797;28;20061;-78
2021/12/08 06:59:21;;;;;;;16.48;2.20;;;5.10;99.90;;;;;;4984506;28;20053;-76
2021/12/08 07:02:18;;;;;;;18.10;2.58;;;5.10;99.90;;;;;;4982577;28;20506;-75
2021/12/08 07:05:08;;;;;;;26.27;2.72;;;5.10;99.90;;;;;;4982733;28;20054;-75
2021/12/08 07:07:38;;;;;;;18.20;2.50;;;5.00;99.90;;;;;;4976666;28;20051;-75
2021/12/08 07:10:21;;;;;;;18.65;2.80;;;5.00;99.90;;;;;;4979974;28;20054;-75
2021/12/08 07:12:54;;;;;;;21.70;2.80;;;5.00;99.90;;;;;;4999067;28;20050;-76
2021/12/08 07:15:50;;;;;;;17.75;2.60;;;5.10;99.90;;;;;;4983758;28;20080;-76
2021/12/08 07:18:25;;;;;;;20.85;2.35;;;5.00;99.90;;;;;;4982200;28;20495;-74
2021/12/08 07:20:58;;;;;;;30.55;3.25;;;5.00;99.90;;;;;;4982812;28;20062;-73
2021/12/08 07:23:43;;;;;;;15.13;2.28;;;5.00;99.90;;;;;;4994465;28;20051;-73
2021/12/08 07:26:19;;;;;;;17.05;2.75;;;5.00;99.90;;;;;;4981914;28;20050;-73
2021/12/08 07:28:48;;;;;;;24.65;3.15;;;4.90;99.90;;;;;;4982436;28;20046;-76
2021/12/08 07:31:20;;;;;;;19.30;2.40;;;4.90;99.90;;;;;;4981568;28;20163;-75
2021/12/08 07:33:49;;;;;;;13.93;2.20;;;4.90;99.90;;;;;;5005884;28;20407;-73
2021/12/08 07:36:21;;;;;;;20.70;2.78;;;4.90;99.90;;;;;;4998190;28;20042;-75
2021/12/08 07:38:53;;;;;;;19.55;2.78;;;4.90;99.90;;;;;;4996432;28;20038;-75
2021/12/08 07:41:34;;;;;;;13.35;2.13;;;4.90;99.90;;;;;;4982131;28;20235;-74
2021/12/08 07:44:07;;;;;;;23.67;2.95;;;4.90;99.90;;;;;;4987053;28;20457;-76
2021/12/08 07:46:42;;;;;;;22.67;2.90;;;5.00;99.90;;;;;;4987069;28;20042;-76
2021/12/08 07:49:32;;;;;;;24.23;3.10;;;4.90;99.90;;;;;;4980170;28;20054;-73
2021/12/08 07:52:14;;;;;;;25.90;3.35;;;4.90;99.90;;;;;;4992199;28;20053;-74
2021/12/08 07:54:43;;;;;;;20.15;2.90;;;4.90;99.90;;;;;;4983968;28;20050;-76
2021/12/08 07:57:17;;;;;;;20.98;2.67;;;4.90;99.90;;;;;;4984969;28;20046;-73
2021/12/08 07:59:49;;;;;;;23.65;3.03;;;4.80;99.90;;;;;;4986787;28;20050;-74
2021/12/08 08:02:19;;;;;;;20.35;2.42;;;4.80;99.90;;;;;;4995930;28;20053;-73
2021/12/08 08:04:49;;;;;;;23.15;2.15;;;4.80;99.90;;;;;;4987773;28;20046;-72
2021/12/08 08:07:17;;;;;;;17.08;2.67;;;4.80;99.90;;;;;;4985506;28;20077;-73
2021/12/08 08:09:47;;;;;;;22.90;3.35;;;4.80;99.90;;;;;;4972046;28;20054;-74
2021/12/08 08:12:21;;;;;;;19.08;2.53;;;4.90;99.90;;;;;;4987805;28;20443;-73
2021/12/08 08:14:53;;;;;;;24.35;3.03;;;4.90;99.90;;;;;;4971018;28;20095;-74
2021/12/08 08:17:35;;;;;;;19.52;2.92;;;4.90;99.90;;;;;;4983944;28;20058;-74
2021/12/08 08:20:23;;;;;;;20.05;2.67;;;4.90;99.90;;;;;;4950606;28;20046;-75
2021/12/08 08:22:52;;;;;;;20.17;2.78;;;4.90;99.90;;;;;;4970768;28;20047;-77
2021/12/08 08:25:23;;;;;;;20.75;2.63;;;4.90;99.90;;;;;;4972996;28;20547;-76
2021/12/08 08:27:51;;;;;;;21.70;3.08;;;5.00;99.90;;;;;;4969412;28;20527;-75
2021/12/08 08:30:24;;;;;;;18.83;2.63;;;5.00;99.90;;;;;;4967588;28;20577;-75
2021/12/08 08:32:54;;;;;;;20.55;3.03;;;5.10;99.90;;;;;;4969816;28;20395;-76
2021/12/08 08:35:51;;;;;;;29.70;3.47;;;5.10;99.90;;;;;;4985135;28;20821;-76
2021/12/08 08:38:26;;;;;;;21.70;2.80;;;5.20;99.90;;;;;;4988164;28;20050;-77
2021/12/08 08:40:59;;;;;;;22.48;2.92;;;5.30;99.90;;;;;;5002864;28;20042;-75
2021/12/08 08:43:27;;;;;;;19.02;2.85;;;5.30;99.90;;;;;;4988050;28;20042;-74
2021/12/08 08:46:01;;;;;;;19.27;2.63;;;5.40;99.90;;;;;;4986709;28;20050;-74
2021/12/08 08:48:39;;;;;;;19.08;2.78;;;5.40;99.90;;;;;;4986816;28;20051;-73
2021/12/08 08:51:22;;;;;;;24.58;2.70;;;5.50;99.90;;;;;;4986613;28;20054;-75
2021/12/08 08:53:53;;;;;;;20.48;3.05;;;5.60;99.90;;;;;;4986108;28;20065;-76
2021/12/08 08:56:31;;;;;;;22.08;2.97;;;5.70;99.90;;;;;;4986575;28;20050;-74
2021/12/08 08:59:03;;;;;;;26.30;2.90;;;5.80;99.90;;;;;;5001311;28;20050;-74
2021/12/08 09:01:36;;;;;;;19.52;3.08;;;5.90;99.90;;;;;;4978019;28;20042;-76
2021/12/08 09:04:08;;;;;;;24.60;3.63;;;6.00;99.90;;;;;;4990404;28;20043;-74
2021/12/08 09:06:43;;;;;;;30.60;3.67;;;6.00;99.90;;;;;;4983775;28;20042;-74
2021/12/08 09:09:16;;;;;;;25.88;3.13;;;6.10;99.90;;;;;;4983839;28;20050;-75
2021/12/08 09:11:52;;;;;;;26.25;3.20;;;6.20;99.90;;;;;;5001483;28;20066;-78
2021/12/08 09:14:32;;;;;;;25.10;3.25;;;6.30;99.90;;;;;;4996619;28;20058;-77
2021/12/08 09:17:06;;;;;;;18.42;2.53;;;6.30;99.90;;;;;;5006366;28;20059;-76
2021/12/08 09:19:42;;;;;;;22.38;2.95;;;6.40;99.90;;;;;;4972886;28;20058;-78
2021/12/08 09:22:27;;;;;;;18.58;2.83;;;6.50;99.90;;;;;;4971137;28;20050;-77
2021/12/08 09:25:08;;;;;;;25.15;3.78;;;6.60;99.90;;;;;;4985695;28;20038;-78
2021/12/08 09:27:41;;;;;;;17.73;3.70;;;6.60;99.90;;;;;;4984825;28;20050;-76
2021/12/08 09:30:38;;;;;;;24.50;3.08;;;6.70;99.90;;;;;;5000435;28;20403;-76
2021/12/08 09:33:11;;;;;;;27.63;3.55;;;6.70;99.90;;;;;;4983688;28;20053;-84
2021/12/08 09:35:56;;;;;;;20.50;2.47;;;6.80;99.90;;;;;;4984378;28;20054;-77
2021/12/08 09:38:32;;;;;;;21.65;2.95;;;6.80;99.90;;;;;;4983081;28;20080;-80
2021/12/08 09:41:13;;;;;;;23.10;3.65;;;6.90;99.90;;;;;;4980981;28;20039;-79
2021/12/08 09:43:46;;;;;;;23.63;3.42;;;7.00;99.90;;;;;;5000186;28;20054;-74
2021/12/08 09:46:29;;;;;;;26.52;3.38;;;7.00;99.90;;;;;;4986946;28;20045;-79
2021/12/08 09:49:03;;;;;;;25.75;2.70;;;7.00;99.90;;;;;;5000350;28;20057;-75
2021/12/08 09:51:33;;;;;;;21.95;3.35;;;7.00;99.90;;;;;;4966441;28;20054;-75
2021/12/08 09:54:01;;;;;;;17.40;2.70;;;7.00;99.90;;;;;;4984006;28;20142;-74
2021/12/08 09:56:30;;;;;;;24.45;3.03;;;7.00;99.90;;;;;;4966150;28;20054;-73
2021/12/08 09:58:58;;;;;;;27.33;3.38;;;7.10;99.90;;;;;;4999618;28;20042;-73
2021/12/08 10:01:27;;;;;;;24.98;3.28;;;7.10;99.90;;;;;;5010509;28;20065;-74
2021/12/08 10:03:56;;;;;;;24.17;3.25;;;7.10;99.90;;;;;;4976863;28;20810;-74
2021/12/08 10:06:25;;;;;;;23.73;3.13;;;7.00;99.90;;;;;;4982094;28;20058;-73
2021/12/08 10:08:58;;;;;;;25.90;3.58;;;7.00;99.90;;;;;;4978606;28;20116;-74
2021/12/08 10:11:29;;;;;;;28.33;3.67;;;7.10;99.90;;;;;;4984827;28;20555;-73
2021/12/08 10:13:58;;;;;;;24.17;3.13;;;7.10;99.90;;;;;;4985370;28;20525;-74
2021/12/08 10:16:26;;;;;;;;;;;7.10;99.90;;;;;;4985125;28;20102;-75
2021/12/08 10:18:56;;;;;;;19.02;2.90;;;7.10;99.90;;;;;;5007180;28;19926;-76
2021/12/08 10:21:39;;;;;;;23.77;3.13;;;7.10;99.90;;;;;;4982717;28;20054;-75
2021/12/08 10:24:20;;;;;;;19.70;3.13;;;7.10;99.90;;;;;;5000163;28;20061;-73
2021/12/08 10:26:53;;;;;;;24.98;3.63;;;7.10;99.90;;;;;;4985329;28;20047;-73
2021/12/08 10:29:28;;;;;;;22.58;3.40;;;7.10;99.90;;;;;;4965796;28;20053;-73
2021/12/08 10:31:59;;;;;;;31.50;3.20;;;7.10;99.90;;;;;;4985643;28;20054;-73
2021/12/08 10:34:35;;;;;;;24.02;2.90;;;7.10;99.90;;;;;;4985097;28;20730;-73
2021/12/08 10:37:07;;;;;;;30.33;3.83;;;7.20;99.90;;;;;;4984275;28;20058;-72
2021/12/08 10:39:45;;;;;;;20.70;3.03;;;7.20;99.90;;;;;;5001192;28;20061;-73
2021/12/08 10:42:22;;;;;;;23.67;3.58;;;7.20;99.90;;;;;;5000445;28;20046;-73
2021/12/08 10:45:10;;;;;;;23.58;3.47;;;7.50;99.90;;;;;;4985145;28;20050;-75
2021/12/08 10:47:54;;;;;;;19.75;3.30;;;7.70;99.90;;;;;;4985144;28;20062;-75
2021/12/08 10:56:34;;;;;;;23.00;3.85;;;9.60;99.90;;;;;;4966986;28;20409;-74
2021/12/08 10:59:02;;;;;;;21.85;3.22;;;10.30;99.90;;;;;;4966718;28;20066;-74
2021/12/08 11:01:30;;;;;;;20.77;3.40;;;10.80;99.90;;;;;;4975374;28;20775;-73
2021/12/08 11:04:03;;;;;;;20.25;3.35;;;11.30;99.90;;;;;;4985095;28;20054;-74
2021/12/08 11:06:33;;;;;;;23.15;3.10;;;11.60;99.90;;;;;;4995874;28;20064;-73
2021/12/08 11:09:03;;;;;;;20.88;3.40;;;11.80;99.90;;;;;;5000737;28;20050;-75
2021/12/08 11:11:33;;;;;;;20.52;3.33;;;12.10;99.90;;;;;;4984896;28;20046;-72
2021/12/08 11:14:04;;;;;;;18.40;3.33;;;12.30;99.90;;;;;;4985118;28;20054;-72
2021/12/08 11:16:38;;;;;;;22.42;3.50;;;12.50;99.90;;;;;;4989471;28;20049;-72
2021/12/08 11:19:24;;;;;;;19.83;3.67;;;12.40;99.90;;;;;;4989483;28;20505;-73
2021/12/08 11:21:57;;;;;;;15.52;2.75;;;12.00;99.90;;;;;;4988864;28;20042;-74
2021/12/08 11:24:44;;;;;;;17.17;3.28;;;11.50;99.70;;;;;;4989439;28;20065;-72
2021/12/08 11:27:28;;;;;;;22.33;3.25;;;11.10;99.90;;;;;;4985194;28;20042;-73
2021/12/08 11:29:56;;;;;;;18.60;3.13;;;10.80;99.90;;;;;;5002133;28;20690;-74
2021/12/08 11:32:24;;;;;;;21.55;3.70;;;10.60;99.90;;;;;;5001513;28;20042;-74
2021/12/08 11:34:55;;;;;;;24.30;3.78;;;10.40;99.90;;;;;;4987742;28;20372;-74
2021/12/08 11:37:25;;;;;;;24.95;4.03;;;10.30;99.90;;;;;;4990287;28;20069;-73
2021/12/08 11:39:58;;;;;;;22.85;3.75;;;10.20;99.90;;;;;;4988526;28;20509;-74
2021/12/08 11:42:29;;;;;;;21.60;3.83;;;10.20;99.90;;;;;;5018878;28;20037;-73
2021/12/08 11:45:01;;;;;;;19.02;3.33;;;10.20;99.90;;;;;;4988784;28;20156;-73
2021/12/08 11:47:34;;;;;;;19.17;3.17;;;10.40;99.90;;;;;;4987543;28;20046;-74
2021/12/08 11:50:15;;;;;;;19.23;3.08;;;10.50;99.90;;;;;;4989492;28;20411;-73
2021/12/08 11:52:43;;;;;;;16.20;3.20;;;10.50;99.90;;;;;;4969090;28;20058;-75
2021/12/08 11:55:13;;;;;;;25.52;3.78;;;10.50;99.90;;;;;;5013255;28;20065;-75
2021/12/08 11:57:48;;;;;;;23.30;3.47;;;10.50;99.90;;;;;;4988103;28;20042;-73
2021/12/08 12:00:19;;;;;;;18.02;3.25;;;10.60;99.90;;;;;;4989195;28;20046;-74
2021/12/08 12:02:56;;;;;;;21.60;3.70;;;10.60;99.90;;;;;;4987565;28;20057;-73
2021/12/08 12:05:36;;;;;;;20.77;3.65;;;10.60;99.90;;;;;;4987704;28;20074;-73
2021/12/08 12:08:12;;;;;;;18.83;3.75;;;10.70;99.90;;;;;;4989245;28;20050;-74
2021/12/08 12:10:44;;;;;;;18.25;3.30;;;10.80;99.90;;;;;;4987865;28;20063;-73
2021/12/08 12:13:13;;;;;;;23.80;3.80;;;10.70;99.90;;;;;;4987132;28;20050;-73
2021/12/08 12:15:44;;;;;;;20.67;3.25;;;10.60;99.90;;;;;;4987615;28;20407;-76
2021/12/08 12:18:13;;;;;;;19.67;3.28;;;10.40;99.90;;;;;;4979402;28;20087;-73
2021/12/08 12:20:43;;;;;;;26.05;4.15;;;10.20;99.90;;;;;;5000389;28;20058;-74
2021/12/08 12:23:32;;;;;;;20.10;3.20;;;10.00;99.90;;;;;;4977474;28;20050;-73
2021/12/08 12:26:23;;;;;;;18.70;3.20;;;9.90;99.90;;;;;;4987308;28;20054;-73
2021/12/08 12:29:09;;;;;;;21.52;3.60;;;9.80;99.90;;;;;;4986722;28;20046;-74
2021/12/08 12:31:54;;;;;;;15.75;3.17;;;9.80;99.90;;;;;;4987641;28;20066;-76
2021/12/08 12:34:22;;;;;;;22.38;3.28;;;9.70;99.90;;;;;;5003368;28;20434;-74
2021/12/08 12:36:50;;;;;;;26.85;3.22;;;9.60;99.90;;;;;;4986881;28;20534;-74
2021/12/08 12:39:23;;;;;;;19.33;3.22;;;9.50;99.90;;;;;;4985885;28;20049;-75
2021/12/08 12:42:04;;;;;;;19.85;2.90;;;9.40;99.90;;;;;;4985810;28;20042;-73
2021/12/08 12:44:32;;;;;;;21.48;3.28;;;9.30;99.90;;;;;;4985550;28;20393;-74
2021/12/08 12:47:09;;;;;;;19.60;3.55;;;9.20;99.90;;;;;;4984991;28;20042;-73
2021/12/08 12:49:43;;;;;;;14.60;2.83;;;9.00;99.90;;;;;;4985900;28;20042;-73
2021/12/08 12:52:16;;;;;;;20.77;3.13;;;9.00;99.90;;;;;;4986576;28;20046;-74
2021/12/08 12:54:46;;;;;;;20.20;3.20;;;8.90;99.90;;;;;;4986199;28;20042;-75
2021/12/08 12:57:14;;;;;;;20.85;3.42;;;8.80;99.90;;;;;;4989978;28;20043;-73
2021/12/08 12:59:50;;;;;;;18.52;3.13;;;8.80;99.90;;;;;;4990908;28;20061;-75
2021/12/08 13:02:34;;;;;;;22.40;3.28;;;8.80;99.90;;;;;;4989796;28;20054;-73
2021/12/08 13:05:10;;;;;;;21.08;3.22;;;8.80;99.90;;;;;;4969774;28;20077;-77
2021/12/08 13:07:55;;;;;;;23.73;3.03;;;8.70;99.90;;;;;;4983442;28;20047;-74
2021/12/08 13:10:32;;;;;;;21.92;3.20;;;8.80;99.90;;;;;;4968658;28;20460;-74
2021/12/08 13:13:15;;;;;;;27.60;3.47;;;8.80;99.90;;;;;;4982952;28;20403;-74
2021/12/08 13:15:45;;;;;;;20.65;3.13;;;8.80;99.90;;;;;;4999601;28;20411;-76
2021/12/08 13:18:15;;;;;;;19.83;2.97;;;8.90;99.90;;;;;;4984822;28;20053;-74
2021/12/08 13:20:46;;;;;;;23.00;3.13;;;9.10;99.90;;;;;;4986777;28;20065;-73
2021/12/08 13:23:18;;;;;;;17.13;2.92;;;9.20;99.90;;;;;;4960359;28;20054;-73
2021/12/08 13:25:57;;;;;;;19.48;2.97;;;9.30;99.90;;;;;;4978248;28;20057;-74
2021/12/08 13:28:52;;;;;;;17.98;2.88;;;9.40;99.90;;;;;;4981123;28;20050;-75
2021/12/08 13:31:47;;;;;;;20.77;3.17;;;9.30;99.90;;;;;;4978959;28;20046;-74
2021/12/08 13:34:23;;;;;;;17.00;2.65;;;9.30;99.90;;;;;;5000486;28;20049;-74
2021/12/08 13:36:50;;;;;;;22.17;3.63;;;9.40;99.90;;;;;;4983933;28;20495;-74
2021/12/08 13:39:29;;;;;;;25.10;3.65;;;9.30;99.90;;;;;;4984513;28;20402;-73
2021/12/08 13:42:28;;;;;;;16.75;3.22;;;9.40;99.90;;;;;;4984553;28;20039;-74
2021/12/08 13:45:16;;;;;;;25.10;3.30;;;9.40;99.90;;;;;;5016908;28;20055;-74
2021/12/08 13:47:46;;;;;;;18.00;2.67;;;9.30;99.90;;;;;;4984952;28;20053;-74
2021/12/08 13:50:19;;;;;;;19.23;2.95;;;9.20;99.90;;;;;;4970511;28;20038;-74
2021/12/08 13:53:06;;;;;;;16.02;3.15;;;9.20;99.90;;;;;;4986521;28;20046;-74
2021/12/08 13:55:41;;;;;;;15.27;3.03;;;9.10;99.90;;;;;;4983863;28;20053;-74
2021/12/08 13:58:12;;;;;;;17.48;2.72;;;9.10;99.90;;;;;;4984795;28;20046;-74
2021/12/08 14:00:51;;;;;;;24.58;3.80;;;9.20;99.90;;;;;;4983212;28;20525;-74